Time;durP1;ratioP1;P1;durP2;ratioP2;P2;SDS_P1;SDS_P2;PMS_P1;PMS_P2;Temp;Humidity;BMP_temperature;BMP_pressure;BME280_temperature;BME280_humidity;BME280_pressure;Samples;Min_cycle;Max_cycle;Signal;HPM_P1;HPM_P2
2022/09/23 00:02:07;;;;;;;5.85;3.47;;;;;;;;;;5302747;28;20123;-67
2022/09/23 00:04:40;;;;;;;6.78;3.80;;;;;;;;;;5303022;28;20099;-67
2022/09/23 00:07:11;;;;;;;6.22;3.70;;;;;;;;;;5303804;28;20019;-67
2022/09/23 00:09:42;;;;;;;4.13;2.95;;;;;;;;;;5302643;28;20024;-68
2022/09/23 00:12:13;;;;;;;6.57;3.15;;;;;;;;;;5303692;28;20121;-68
2022/09/23 00:14:45;;;;;;;5.72;4.13;;;;;;;;;;5302130;28;20343;-66
2022/09/23 00:17:16;;;;;;;6.18;3.85;;;;;;;;;;5303485;28;20081;-66
2022/09/23 00:19:47;;;;;;;4.95;3.58;;;;;;;;;;5302979;28;20073;-66
2022/09/23 00:22:18;;;;;;;4.95;3.63;;;;;;;;;;5302717;28;20300;-67
2022/09/23 00:24:49;;;;;;;7.28;4.10;;;;;;;;;;5302698;28;20016;-67
2022/09/23 00:27:21;;;;;;;4.80;4.03;;;;;;;;;;5303365;28;20429;-66
2022/09/23 00:29:52;;;;;;;8.48;4.35;;;;;;;;;;5301723;28;20095;-66
2022/09/23 00:32:23;;;;;;;6.93;4.07;;;;;;;;;;5302984;28;20508;-66
2022/09/23 00:34:54;;;;;;;7.60;4.03;;;;;;;;;;5303017;28;20091;-66
2022/09/23 00:37:27;;;;;;;7.75;4.32;;;;;;;;;;5301549;28;20417;-66
2022/09/23 00:39:59;;;;;;;7.57;5.00;;;;;;;;;;5303186;28;20351;-66
2022/09/23 00:42:30;;;;;;;5.82;4.63;;;;;;;;;;5302168;28;20059;-67
2022/09/23 00:45:03;;;;;;;8.85;4.97;;;;;;;;;;5302038;28;20024;-67
2022/09/23 00:47:40;;;;;;;7.80;4.70;;;;;;;;;;5302174;28;20023;-67
2022/09/23 00:50:13;;;;;;;7.95;4.57;;;;;;;;;;5302047;28;20051;-66
2022/09/23 00:52:45;;;;;;;6.20;4.63;;;;;;;;;;5302175;28;20201;-66
2022/09/23 00:55:22;;;;;;;7.68;4.70;;;;;;;;;;5302876;28;20012;-66
2022/09/23 00:57:55;;;;;;;6.68;5.40;;;;;;;;;;5301583;28;20494;-66
2022/09/23 01:00:26;;;;;;;7.05;4.93;;;;;;;;;;5302200;28;20044;-66
2022/09/23 01:02:58;;;;;;;6.93;5.05;;;;;;;;;;5302476;28;20059;-66
2022/09/23 01:05:30;;;;;;;7.70;5.93;;;;;;;;;;5301047;28;20020;-67
2022/09/23 01:08:03;;;;;;;8.35;6.13;;;;;;;;;;5302706;28;20020;-66
2022/09/23 01:10:40;;;;;;;8.18;5.85;;;;;;;;;;5302006;28;20015;-68
2022/09/23 01:13:23;;;;;;;8.05;5.65;;;;;;;;;;5301830;28;20036;-66
2022/09/23 01:16:18;;;;;;;10.02;6.40;;;;;;;;;;5301309;28;20065;-66
2022/09/23 01:18:55;;;;;;;8.95;5.88;;;;;;;;;;5295066;28;20032;-66
2022/09/23 01:21:37;;;;;;;8.70;6.00;;;;;;;;;;5301926;28;20058;-68
2022/09/23 01:24:11;;;;;;;9.43;6.72;;;;;;;;;;5302311;28;20024;-66
2022/09/23 01:26:51;;;;;;;7.63;6.60;;;;;;;;;;5300918;28;20041;-68
2022/09/23 01:29:35;;;;;;;7.30;6.03;;;;;;;;;;5302418;28;20020;-67
2022/09/23 01:32:12;;;;;;;9.45;6.95;;;;;;;;;;5301477;28;20505;-67
2022/09/23 01:34:49;;;;;;;9.77;6.38;;;;;;;;;;5301511;28;20028;-67
2022/09/23 01:37:30;;;;;;;8.27;6.50;;;;;;;;;;5302198;28;20020;-67
2022/09/23 01:40:05;;;;;;;9.65;6.93;;;;;;;;;;5300740;28;20017;-67
2022/09/23 01:42:42;;;;;;;8.45;6.72;;;;;;;;;;5300973;28;20036;-67
2022/09/23 01:45:31;;;;;;;7.97;6.40;;;;;;;;;;5301630;28;20058;-67
2022/09/23 01:48:12;;;;;;;10.65;7.80;;;;;;;;;;5300362;28;20032;-67
2022/09/23 01:50:56;;;;;;;8.65;7.22;;;;;;;;;;5300369;28;20063;-67
2022/09/23 01:53:37;;;;;;;9.75;7.15;;;;;;;;;;5299711;28;20050;-67
2022/09/23 01:56:23;;;;;;;7.97;6.22;;;;;;;;;;5301293;28;20032;-67
2022/09/23 01:58:54;;;;;;;8.48;7.00;;;;;;;;;;5300891;28;20192;-67
2022/09/23 02:01:28;;;;;;;8.68;6.72;;;;;;;;;;5299392;28;20078;-68
2022/09/23 02:04:03;;;;;;;9.05;6.97;;;;;;;;;;5301203;28;20266;-68
2022/09/23 02:06:42;;;;;;;9.38;7.13;;;;;;;;;;5300620;28;20016;-67
2022/09/23 02:09:15;;;;;;;7.75;6.95;;;;;;;;;;5300339;28;20107;-67
2022/09/23 02:11:47;;;;;;;8.90;6.90;;;;;;;;;;5300343;28;20019;-67
2022/09/23 02:14:29;;;;;;;14.38;7.32;;;;;;;;;;5300327;28;20105;-66
2022/09/23 02:17:07;;;;;;;8.05;7.00;;;;;;;;;;5301001;28;20023;-67
2022/09/23 02:19:42;;;;;;;11.57;7.28;;;;;;;;;;5300435;28;20383;-68
2022/09/23 02:22:16;;;;;;;8.05;7.18;;;;;;;;;;5300332;28;20021;-68
2022/09/23 02:24:48;;;;;;;7.90;7.10;;;;;;;;;;5300227;28;20066;-67
2022/09/23 02:27:21;;;;;;;9.23;7.53;;;;;;;;;;5304288;28;20016;-67
2022/09/23 02:30:01;;;;;;;10.13;7.30;;;;;;;;;;5303400;28;20020;-67
2022/09/23 02:32:32;;;;;;;;;;;;;;;;;;5304634;28;20031;-67
2022/09/23 02:35:09;;;;;;;11.88;7.55;;;;;;;;;;5304597;28;20340;-67
2022/09/23 02:37:42;;;;;;;9.60;6.85;;;;;;;;;;5303954;28;20074;-67
2022/09/23 02:40:21;;;;;;;9.05;7.90;;;;;;;;;;5304495;28;20047;-67
2022/09/23 02:42:55;;;;;;;9.35;7.43;;;;;;;;;;5303416;28;20463;-68
2022/09/23 02:45:26;;;;;;;7.82;6.95;;;;;;;;;;5304024;28;20056;-67
2022/09/23 02:48:01;;;;;;;9.57;7.70;;;;;;;;;;5304836;28;20104;-67
2022/09/23 02:50:32;;;;;;;8.68;6.68;;;;;;;;;;5303101;28;20051;-67
2022/09/23 02:53:04;;;;;;;7.22;6.45;;;;;;;;;;5304080;28;20016;-68
2022/09/23 02:55:36;;;;;;;7.93;7.13;;;;;;;;;;5303386;28;20077;-68
2022/09/23 02:58:08;;;;;;;8.88;7.10;;;;;;;;;;5303298;28;20414;-67
2022/09/23 03:00:57;;;;;;;10.10;6.63;;;;;;;;;;5303057;28;20016;-67
2022/09/23 03:03:35;;;;;;;10.55;7.60;;;;;;;;;;5302441;28;20020;-66
2022/09/23 03:06:11;;;;;;;9.70;7.18;;;;;;;;;;5303784;28;20073;-67
2022/09/23 03:08:43;;;;;;;10.75;7.30;;;;;;;;;;5303356;28;20020;-67
2022/09/23 03:11:15;;;;;;;9.27;8.18;;;;;;;;;;5303505;28;20035;-67
2022/09/23 03:13:46;;;;;;;8.63;7.22;;;;;;;;;;5303470;28;20024;-68
2022/09/23 03:16:29;;;;;;;9.88;6.50;;;;;;;;;;5303698;28;20016;-68
2022/09/23 03:19:20;;;;;;;8.30;7.00;;;;;;;;;;5303229;28;20035;-68
2022/09/23 03:21:59;;;;;;;9.57;6.53;;;;;;;;;;5302356;28;20044;-67
2022/09/23 03:24:31;;;;;;;7.72;6.97;;;;;;;;;;5302330;28;20030;-67
2022/09/23 03:27:04;;;;;;;7.20;6.47;;;;;;;;;;5303561;28;20112;-67
2022/09/23 03:29:36;;;;;;;9.63;6.97;;;;;;;;;;5302990;28;20418;-68
2022/09/23 03:32:07;;;;;;;7.40;5.65;;;;;;;;;;5302730;28;20040;-68
2022/09/23 03:34:39;;;;;;;9.30;6.40;;;;;;;;;;5302846;28;20024;-67
2022/09/23 03:37:26;;;;;;;9.25;6.25;;;;;;;;;;5302411;28;20035;-66
2022/09/23 03:40:23;;;;;;;9.93;6.32;;;;;;;;;;5302741;28;20212;-68
2022/09/23 03:42:56;;;;;;;8.68;6.53;;;;;;;;;;5300495;28;20044;-67
2022/09/23 03:45:29;;;;;;;8.32;5.85;;;;;;;;;;5301928;28;20024;-67
2022/09/23 03:48:01;;;;;;;6.72;5.80;;;;;;;;;;5302942;28;20470;-67
2022/09/23 03:50:34;;;;;;;6.72;5.43;;;;;;;;;;5302276;28;20040;-67
2022/09/23 03:53:05;;;;;;;9.82;5.90;;;;;;;;;;5302223;28;20099;-67
2022/09/23 03:55:38;;;;;;;6.75;6.10;;;;;;;;;;5302341;28;20104;-67
2022/09/23 03:58:10;;;;;;;5.88;5.28;;;;;;;;;;5302780;28;20099;-67
2022/09/23 04:00:42;;;;;;;10.13;5.72;;;;;;;;;;5301505;28;20127;-67
2022/09/23 04:03:13;;;;;;;7.85;6.25;;;;;;;;;;5302788;28;20050;-67
2022/09/23 04:05:44;;;;;;;7.45;5.22;;;;;;;;;;5302085;28;20025;-67
2022/09/23 04:08:15;;;;;;;8.68;5.80;;;;;;;;;;5301873;28;20028;-67
2022/09/23 04:10:46;;;;;;;8.32;5.90;;;;;;;;;;5302190;28;20020;-67
2022/09/23 04:13:17;;;;;;;8.98;5.68;;;;;;;;;;5303026;28;20409;-67
2022/09/23 04:15:49;;;;;;;7.38;5.32;;;;;;;;;;5301125;28;20434;-68
2022/09/23 04:18:20;;;;;;;6.28;5.63;;;;;;;;;;5302489;28;20028;-67
2022/09/23 04:20:55;;;;;;;12.07;6.28;;;;;;;;;;5300790;28;20092;-68
2022/09/23 04:23:26;;;;;;;7.78;5.85;;;;;;;;;;5301646;28;20028;-67
2022/09/23 04:25:57;;;;;;;7.85;5.60;;;;;;;;;;5302506;28;20101;-67
2022/09/23 04:28:28;;;;;;;7.75;5.63;;;;;;;;;;5300679;28;20024;-67
2022/09/23 04:31:03;;;;;;;10.93;5.60;;;;;;;;;;5302313;28;20481;-67
2022/09/23 04:33:35;;;;;;;8.18;5.38;;;;;;;;;;5301406;28;20270;-67
2022/09/23 04:36:06;;;;;;;7.00;6.00;;;;;;;;;;5301294;28;20101;-67
2022/09/23 04:38:37;;;;;;;6.90;5.35;;;;;;;;;;5301453;28;20467;-67
2022/09/23 04:41:08;;;;;;;10.15;6.30;;;;;;;;;;5301866;28;20078;-67
2022/09/23 04:43:40;;;;;;;8.27;6.10;;;;;;;;;;5300558;28;20040;-67
2022/09/23 04:46:12;;;;;;;8.52;6.25;;;;;;;;;;5301919;28;20016;-67
2022/09/23 04:48:43;;;;;;;10.38;6.15;;;;;;;;;;5300780;28;20126;-67
2022/09/23 04:51:16;;;;;;;9.18;6.18;;;;;;;;;;5301886;28;20107;-67
2022/09/23 04:53:48;;;;;;;8.75;5.82;;;;;;;;;;5301202;28;20019;-68
2022/09/23 04:56:21;;;;;;;7.97;5.90;;;;;;;;;;5301019;28;20061;-67
2022/09/23 04:58:53;;;;;;;8.05;6.95;;;;;;;;;;5301165;28;20019;-68
2022/09/23 05:01:25;;;;;;;7.68;5.82;;;;;;;;;;5301274;28;20020;-67
2022/09/23 05:04:01;;;;;;;8.05;5.80;;;;;;;;;;5301080;28;20409;-66
2022/09/23 05:06:35;;;;;;;8.32;4.88;;;;;;;;;;5301181;28;20391;-66
2022/09/23 05:09:07;;;;;;;7.82;5.70;;;;;;;;;;5301489;28;20086;-66
2022/09/23 05:11:39;;;;;;;6.75;5.13;;;;;;;;;;5300270;28;20336;-67
2022/09/23 05:14:10;;;;;;;6.20;5.57;;;;;;;;;;5301435;28;20412;-67
2022/09/23 05:16:41;;;;;;;6.93;5.38;;;;;;;;;;5300915;28;20032;-67
2022/09/23 05:19:12;;;;;;;7.85;5.75;;;;;;;;;;5300653;28;20020;-67
2022/09/23 05:21:43;;;;;;;7.28;5.18;;;;;;;;;;5300671;28;20039;-67
2022/09/23 05:24:15;;;;;;;8.30;5.45;;;;;;;;;;5300994;28;20024;-67
2022/09/23 05:26:46;;;;;;;7.50;5.15;;;;;;;;;;5301186;28;20027;-67
2022/09/23 05:29:18;;;;;;;7.82;5.65;;;;;;;;;;5301496;28;20027;-67
2022/09/23 05:31:49;;;;;;;7.50;5.30;;;;;;;;;;5300167;28;20020;-67
2022/09/23 05:34:20;;;;;;;11.73;5.78;;;;;;;;;;5301518;28;20012;-67
2022/09/23 05:36:51;;;;;;;5.53;5.03;;;;;;;;;;5301018;28;20016;-67
2022/09/23 05:39:23;;;;;;;9.10;5.28;;;;;;;;;;5300692;28;20262;-68
2022/09/23 05:41:54;;;;;;;7.13;4.63;;;;;;;;;;5300964;28;20051;-67
2022/09/23 05:44:25;;;;;;;7.38;5.13;;;;;;;;;;5300468;28;20093;-68
2022/09/23 05:46:56;;;;;;;9.48;4.93;;;;;;;;;;5300610;28;20520;-67
2022/09/23 05:49:28;;;;;;;7.82;4.70;;;;;;;;;;5300291;28;20052;-67
2022/09/23 05:51:59;;;;;;;6.88;4.57;;;;;;;;;;5301468;28;20301;-67
2022/09/23 05:54:30;;;;;;;7.55;5.18;;;;;;;;;;5299589;28;20091;-67
2022/09/23 05:57:02;;;;;;;7.48;5.02;;;;;;;;;;5300943;28;20023;-67
2022/09/23 05:59:33;;;;;;;8.68;4.57;;;;;;;;;;5299833;28;20103;-68
2022/09/23 06:02:05;;;;;;;7.82;4.65;;;;;;;;;;5304048;28;20032;-68
2022/09/23 06:04:37;;;;;;;8.30;4.70;;;;;;;;;;5304375;28;20079;-66
2022/09/23 06:07:08;;;;;;;9.23;4.45;;;;;;;;;;5304186;28;20474;-68
2022/09/23 06:09:41;;;;;;;5.75;4.10;;;;;;;;;;5304299;28;20375;-67
2022/09/23 06:12:13;;;;;;;10.32;5.25;;;;;;;;;;5304858;28;20020;-67
2022/09/23 06:14:44;;;;;;;8.18;4.28;;;;;;;;;;5303798;28;20383;-68
2022/09/23 06:17:15;;;;;;;8.73;4.40;;;;;;;;;;5305091;28;20055;-67
2022/09/23 06:19:46;;;;;;;8.13;5.68;;;;;;;;;;5304167;28;20024;-68
2022/09/23 06:22:17;;;;;;;10.07;4.75;;;;;;;;;;5303890;28;20492;-67
2022/09/23 06:24:48;;;;;;;10.45;4.70;;;;;;;;;;5304334;28;20032;-67
2022/09/23 06:27:20;;;;;;;10.00;4.82;;;;;;;;;;5303994;28;20286;-67
2022/09/23 06:29:51;;;;;;;10.20;4.72;;;;;;;;;;5304362;28;20353;-68
2022/09/23 06:32:22;;;;;;;7.75;5.10;;;;;;;;;;5304661;28;20024;-67
2022/09/23 06:34:53;;;;;;;8.07;4.90;;;;;;;;;;5303418;28;20024;-67
2022/09/23 06:37:24;;;;;;;9.85;5.00;;;;;;;;;;5304089;28;20502;-68
2022/09/23 06:39:56;;;;;;;8.27;4.80;;;;;;;;;;5304494;28;20752;-67
2022/09/23 06:42:27;;;;;;;8.50;4.60;;;;;;;;;;5303019;28;20857;-67
2022/09/23 06:44:58;;;;;;;7.18;4.78;;;;;;;;;;5304203;28;20122;-66
2022/09/23 06:47:30;;;;;;;7.90;4.60;;;;;;;;;;5303650;28;20277;-67
2022/09/23 06:50:01;;;;;;;7.75;4.00;;;;;;;;;;5303475;28;20109;-67
2022/09/23 06:52:33;;;;;;;7.70;4.60;;;;;;;;;;5303610;28;20032;-68
2022/09/23 06:55:04;;;;;;;6.95;4.63;;;;;;;;;;5304088;28;20024;-66
2022/09/23 06:57:36;;;;;;;8.38;4.90;;;;;;;;;;5302502;28;20073;-66
2022/09/23 07:00:07;;;;;;;6.55;3.95;;;;;;;;;;5304129;28;20028;-68
2022/09/23 07:02:41;;;;;;;9.48;4.68;;;;;;;;;;5302480;28;20089;-67
2022/09/23 07:05:14;;;;;;;6.90;4.70;;;;;;;;;;5304025;28;20016;-67
2022/09/23 07:07:45;;;;;;;9.73;4.45;;;;;;;;;;5303469;28;20386;-66
2022/09/23 07:10:16;;;;;;;7.50;4.82;;;;;;;;;;5303089;28;20031;-67
2022/09/23 07:12:48;;;;;;;9.30;4.80;;;;;;;;;;5301814;28;20023;-67
2022/09/23 07:15:19;;;;;;;6.45;4.82;;;;;;;;;;5303627;28;20348;-67
2022/09/23 07:17:50;;;;;;;9.57;4.90;;;;;;;;;;5302221;28;20659;-67
2022/09/23 07:20:21;;;;;;;7.45;4.70;;;;;;;;;;5303817;28;20598;-68
2022/09/23 07:22:53;;;;;;;8.57;4.35;;;;;;;;;;5303000;28;20035;-68
2022/09/23 07:25:24;;;;;;;7.15;3.75;;;;;;;;;;5302089;28;20020;-68
2022/09/23 07:27:55;;;;;;;11.73;5.60;;;;;;;;;;5303017;28;20077;-68
2022/09/23 07:30:26;;;;;;;9.20;5.18;;;;;;;;;;5302925;28;20020;-68
2022/09/23 07:32:57;;;;;;;7.72;4.10;;;;;;;;;;5302981;28;20274;-68
2022/09/23 07:35:28;;;;;;;5.22;4.53;;;;;;;;;;5303310;28;20265;-68
2022/09/23 07:38:00;;;;;;;11.25;4.70;;;;;;;;;;5302499;28;20105;-68
2022/09/23 07:40:31;;;;;;;8.13;4.20;;;;;;;;;;5302522;28;20026;-68
2022/09/23 07:43:03;;;;;;;5.68;4.30;;;;;;;;;;5302995;28;20301;-67
2022/09/23 07:45:36;;;;;;;6.53;4.18;;;;;;;;;;5301238;28;20373;-67
2022/09/23 07:48:07;;;;;;;8.93;4.38;;;;;;;;;;5303199;28;20385;-67
2022/09/23 07:50:39;;;;;;;9.23;4.85;;;;;;;;;;5301190;28;20044;-68
2022/09/23 07:53:12;;;;;;;6.45;3.85;;;;;;;;;;5301839;28;20024;-67
2022/09/23 07:55:49;;;;;;;9.00;4.43;;;;;;;;;;5306009;28;20031;-68
2022/09/23 07:58:21;;;;;;;7.03;3.83;;;;;;;;;;5324748;28;20007;-68
2022/09/23 08:00:53;;;;;;;7.70;3.70;;;;;;;;;;5322782;28;20356;-68
2022/09/23 08:03:24;;;;;;;5.78;4.15;;;;;;;;;;5323553;28;20023;-66
2022/09/23 08:06:02;;;;;;;7.70;4.50;;;;;;;;;;5322678;28;20262;-67
2022/09/23 08:08:34;;;;;;;8.18;4.38;;;;;;;;;;5323243;28;20360;-68
2022/09/23 08:11:06;;;;;;;8.00;4.18;;;;;;;;;;5323488;28;20437;-67
2022/09/23 08:13:37;;;;;;;5.10;3.40;;;;;;;;;;5322267;28;20469;-68
2022/09/23 08:16:09;;;;;;;6.80;3.43;;;;;;;;;;5323706;28;20123;-67
2022/09/23 08:18:42;;;;;;;10.70;3.75;;;;;;;;;;5323169;28;20296;-68
2022/09/23 08:21:17;;;;;;;7.18;4.25;;;;;;;;;;5323075;28;20024;-67
2022/09/23 08:23:49;;;;;;;6.20;3.70;;;;;;;;;;5322008;27;20076;-68
2022/09/23 08:26:21;;;;;;;6.95;3.20;;;;;;;;;;5323754;28;20034;-68
2022/09/23 08:28:53;;;;;;;5.70;3.92;;;;;;;;;;5321781;28;20411;-67
2022/09/23 08:31:24;;;;;;;8.50;3.88;;;;;;;;;;5323201;28;20054;-69
2022/09/23 08:33:56;;;;;;;8.02;4.10;;;;;;;;;;5322158;28;20042;-68
2022/09/23 08:36:27;;;;;;;7.38;3.75;;;;;;;;;;5322581;28;20439;-66
2022/09/23 08:38:58;;;;;;;7.10;3.55;;;;;;;;;;5323021;28;20034;-66
2022/09/23 08:41:33;;;;;;;8.63;3.80;;;;;;;;;;5321096;28;20049;-68
2022/09/23 08:44:10;;;;;;;7.03;3.90;;;;;;;;;;5323492;28;20115;-67
2022/09/23 08:46:51;;;;;;;5.05;3.25;;;;;;;;;;5322642;28;20047;-68
2022/09/23 08:49:27;;;;;;;7.38;3.22;;;;;;;;;;5322231;28;20043;-68
2022/09/23 08:52:05;;;;;;;7.00;3.42;;;;;;;;;;5322920;28;20024;-68
2022/09/23 08:54:36;;;;;;;5.40;3.40;;;;;;;;;;5322200;28;20019;-66
2022/09/23 08:57:16;;;;;;;5.70;3.42;;;;;;;;;;5322271;28;20076;-67
2022/09/23 08:59:48;;;;;;;6.43;2.67;;;;;;;;;;5322383;28;20038;-68
2022/09/23 09:02:20;;;;;;;7.68;3.55;;;;;;;;;;5321827;28;20024;-67
2022/09/23 09:04:53;;;;;;;5.40;3.33;;;;;;;;;;5322255;28;20019;-67
2022/09/23 09:07:28;;;;;;;5.70;2.63;;;;;;;;;;5322581;28;20074;-68
2022/09/23 09:10:19;;;;;;;6.32;2.65;;;;;;;;;;5322312;28;20043;-67
2022/09/23 09:13:06;;;;;;;8.45;3.20;;;;;;;;;;5322137;28;20027;-68
2022/09/23 09:15:45;;;;;;;4.88;2.60;;;;;;;;;;5322596;28;20020;-67
2022/09/23 09:18:20;;;;;;;5.13;2.28;;;;;;;;;;5322508;28;20030;-67
2022/09/23 09:20:58;;;;;;;6.55;2.95;;;;;;;;;;5321978;28;20024;-68
2022/09/23 09:23:37;;;;;;;4.47;2.80;;;;;;;;;;5320776;28;20023;-69
2022/09/23 09:26:20;;;;;;;5.88;2.30;;;;;;;;;;5322538;28;20028;-69
2022/09/23 09:29:01;;;;;;;4.22;2.28;;;;;;;;;;5322012;28;20220;-68
2022/09/23 09:31:36;;;;;;;5.28;2.42;;;;;;;;;;5321195;28;20104;-69
2022/09/23 09:34:26;;;;;;;4.05;2.05;;;;;;;;;;5322625;28;20024;-69
2022/09/23 09:37:04;;;;;;;6.10;2.00;;;;;;;;;;5325667;28;20023;-71
2022/09/23 09:39:35;;;;;;;8.05;2.20;;;;;;;;;;5325855;28;20047;-70
2022/09/23 09:42:12;;;;;;;6.00;2.08;;;;;;;;;;5326815;28;20378;-67
2022/09/23 09:44:48;;;;;;;4.28;1.92;;;;;;;;;;5325829;28;20034;-69
2022/09/23 09:47:19;;;;;;;5.50;1.45;;;;;;;;;;5327296;28;20024;-69
2022/09/23 09:49:57;;;;;;;4.55;1.73;;;;;;;;;;5326353;28;20505;-69
2022/09/23 09:52:29;;;;;;;3.83;1.15;;;;;;;;;;5325397;28;20489;-69
2022/09/23 09:55:12;;;;;;;4.68;1.40;;;;;;;;;;5326686;28;20023;-68
2022/09/23 09:57:49;;;;;;;4.55;1.33;;;;;;;;;;5326377;28;20405;-68
2022/09/23 10:00:20;;;;;;;4.28;1.80;;;;;;;;;;5326023;28;20103;-68
2022/09/23 10:02:52;;;;;;;4.97;1.40;;;;;;;;;;5325957;28;20042;-68
2022/09/23 10:05:24;;;;;;;3.67;1.20;;;;;;;;;;5325892;28;20016;-69
2022/09/23 10:07:55;;;;;;;4.65;1.30;;;;;;;;;;5326229;28;20169;-68
2022/09/23 10:10:27;;;;;;;2.53;1.10;;;;;;;;;;5326026;28;20435;-68
2022/09/23 10:13:09;;;;;;;3.60;1.25;;;;;;;;;;5325704;28;20353;-68
2022/09/23 10:15:42;;;;;;;5.35;1.83;;;;;;;;;;5325999;28;20140;-68
2022/09/23 10:18:27;;;;;;;6.72;1.98;;;;;;;;;;5326269;28;20172;-68
2022/09/23 10:21:08;;;;;;;3.63;2.15;;;;;;;;;;5325391;28;20494;-69
2022/09/23 10:23:41;;;;;;;5.50;2.10;;;;;;;;;;5325489;28;20020;-68
2022/09/23 10:26:14;;;;;;;7.20;2.10;;;;;;;;;;5326215;28;20016;-68
2022/09/23 10:28:47;;;;;;;4.55;1.95;;;;;;;;;;5325514;28;20529;-69
2022/09/23 10:31:23;;;;;;;5.43;1.63;;;;;;;;;;5326511;28;20023;-69
2022/09/23 10:34:01;;;;;;;6.18;2.40;;;;;;;;;;5325283;28;20371;-69
2022/09/23 10:36:32;;;;;;;7.13;1.67;;;;;;;;;;5325700;28;20022;-68
2022/09/23 10:47:47;;;;;;;6.28;1.80;;;;;;;;;;5324424;28;20032;-70
2022/09/23 10:50:37;;;;;;;2.92;1.20;;;;;;;;;;5325514;28;20060;-69
2022/09/23 10:53:17;;;;;;;4.53;1.90;;;;;;;;;;5325820;28;20034;-69
2022/09/23 10:55:53;;;;;;;3.70;1.80;;;;;;;;;;5324304;28;20027;-69
2022/09/23 10:58:24;;;;;;;5.55;2.65;;;;;;;;;;5325316;28;20315;-69
2022/09/23 11:01:14;;;;;;;5.00;2.40;;;;;;;;;;5325087;28;20024;-68
2022/09/23 11:03:45;;;;;;;5.82;2.83;;;;;;;;;;5323835;28;20391;-68
2022/09/23 11:06:35;;;;;;;5.88;2.20;;;;;;;;;;5325253;28;20065;-69
2022/09/23 11:09:25;;;;;;;5.05;2.28;;;;;;;;;;5324463;28;20069;-68
2022/09/23 11:12:05;;;;;;;5.30;2.67;;;;;;;;;;5324843;28;20055;-69
2022/09/23 11:14:39;;;;;;;4.70;1.92;;;;;;;;;;5324375;28;20058;-69
2022/09/23 11:17:17;;;;;;;4.35;2.08;;;;;;;;;;5324067;28;20019;-69
2022/09/23 11:19:48;;;;;;;6.28;1.70;;;;;;;;;;5324001;28;20135;-69
2022/09/23 11:22:37;;;;;;;8.05;1.70;;;;;;;;;;5324466;28;20119;-70
2022/09/23 11:25:29;;;;;;;5.57;2.15;;;;;;;;;;5324380;28;20047;-70
2022/09/23 11:28:08;;;;;;;5.22;1.50;;;;;;;;;;5324631;28;20122;-70
2022/09/23 11:30:45;;;;;;;4.63;1.63;;;;;;;;;;5323372;28;20047;-70
2022/09/23 11:33:16;;;;;;;6.93;1.45;;;;;;;;;;5324634;28;20095;-70
2022/09/23 11:35:49;;;;;;;7.95;2.03;;;;;;;;;;5323954;28;20488;-70
2022/09/23 11:38:25;;;;;;;4.32;1.60;;;;;;;;;;5323734;28;20542;-70
2022/09/23 11:41:01;;;;;;;5.35;1.77;;;;;;;;;;5324226;28;20412;-70
2022/09/23 11:43:35;;;;;;;4.40;1.67;;;;;;;;;;5323359;28;20039;-70
2022/09/23 11:46:24;;;;;;;4.57;1.58;;;;;;;;;;5323562;27;20495;-71
2022/09/23 11:49:06;;;;;;;4.53;1.35;;;;;;;;;;5323727;28;20394;-70
2022/09/23 11:51:43;;;;;;;5.47;1.38;;;;;;;;;;5322776;28;20489;-70
2022/09/23 11:54:14;;;;;;;8.68;1.85;;;;;;;;;;5324257;28;20379;-70
2022/09/23 11:56:49;;;;;;;5.22;1.00;;;;;;;;;;5323187;28;20020;-71
2022/09/23 11:59:30;;;;;;;3.60;0.90;;;;;;;;;;5322554;28;20023;-71
2022/09/23 12:02:12;;;;;;;4.32;0.90;;;;;;;;;;5323698;28;20056;-71
2022/09/23 12:04:46;;;;;;;5.03;1.02;;;;;;;;;;5323291;28;20039;-71
2022/09/23 12:07:20;;;;;;;6.15;1.20;;;;;;;;;;5322884;28;20080;-71
2022/09/23 12:09:59;;;;;;;4.05;0.90;;;;;;;;;;5323325;28;20062;-70
2022/09/23 12:12:46;;;;;;;5.70;0.88;;;;;;;;;;5322267;28;20028;-69
2022/09/23 12:15:17;;;;;;;3.83;0.90;;;;;;;;;;5324178;28;20031;-69
2022/09/23 12:17:57;;;;;;;4.90;1.00;;;;;;;;;;5322858;28;20019;-71
2022/09/23 12:20:40;;;;;;;7.78;0.98;;;;;;;;;;5321823;28;20482;-71
2022/09/23 12:23:30;;;;;;;4.38;0.80;;;;;;;;;;5323806;28;20038;-69
2022/09/23 12:26:05;;;;;;;3.97;0.75;;;;;;;;;;5322832;28;20020;-69
2022/09/23 12:28:39;;;;;;;8.75;0.90;;;;;;;;;;5323091;28;20022;-71
2022/09/23 12:31:12;;;;;;;4.78;0.70;;;;;;;;;;5323763;28;20030;-70
2022/09/23 12:33:51;;;;;;;3.72;0.77;;;;;;;;;;5322318;28;20465;-70
2022/09/23 12:36:32;;;;;;;4.70;0.80;;;;;;;;;;5323610;27;20091;-70
2022/09/23 12:39:16;;;;;;;3.45;0.80;;;;;;;;;;5323346;28;20020;-71
2022/09/23 12:41:49;;;;;;;2.53;0.90;;;;;;;;;;5322164;28;20516;-71
2022/09/23 12:44:20;;;;;;;7.13;0.80;;;;;;;;;;5323298;28;20015;-70
2022/09/23 12:47:10;;;;;;;4.82;0.90;;;;;;;;;;5322275;28;20392;-70
2022/09/23 12:49:41;;;;;;;3.60;1.00;;;;;;;;;;5322208;28;20451;-70
2022/09/23 12:52:12;;;;;;;5.63;0.80;;;;;;;;;;5322973;28;20046;-70
2022/09/23 12:54:48;;;;;;;3.00;0.85;;;;;;;;;;5321743;28;20427;-70
2022/09/23 12:57:34;;;;;;;4.88;1.00;;;;;;;;;;5323325;28;20034;-71
2022/09/23 13:00:05;;;;;;;6.05;1.15;;;;;;;;;;5323132;28;20419;-72
2022/09/23 13:02:45;;;;;;;3.92;1.73;;;;;;;;;;5321508;28;20038;-72
2022/09/23 13:08:14;;;;;;;4.30;1.08;;;;;;;;;;5321972;28;20031;-71
2022/09/23 13:10:48;;;;;;;5.50;1.52;;;;;;;;;;5322363;28;20027;-72
2022/09/23 13:13:22;;;;;;;5.57;1.55;;;;;;;;;;5323134;28;20501;-71
2022/09/23 13:15:53;;;;;;;4.82;2.00;;;;;;;;;;5321522;28;20023;-71
2022/09/23 13:18:45;;;;;;;4.95;1.42;;;;;;;;;;5322604;28;20012;-71
2022/09/23 13:21:17;;;;;;;4.07;2.30;;;;;;;;;;5322498;28;20062;-70
2022/09/23 13:24:08;;;;;;;9.15;1.60;;;;;;;;;;5321337;28;20334;-70
2022/09/23 13:26:44;;;;;;;6.28;1.98;;;;;;;;;;5321908;28;20351;-70
2022/09/23 13:29:25;;;;;;;9.00;2.00;;;;;;;;;;5321674;28;20023;-70
2022/09/23 13:31:57;;;;;;;9.02;1.73;;;;;;;;;;5322753;28;20023;-71
2022/09/23 13:34:30;;;;;;;7.82;1.73;;;;;;;;;;5322049;28;20027;-69
2022/09/23 13:37:16;;;;;;;4.72;1.70;;;;;;;;;;5322108;28;20016;-69
2022/09/23 13:39:47;;;;;;;3.22;1.20;;;;;;;;;;5322388;28;20103;-68
2022/09/23 13:42:25;;;;;;;3.00;1.00;;;;;;;;;;5322238;28;20160;-70
2022/09/23 13:44:59;;;;;;;3.93;1.53;;;;;;;;;;5321626;28;20069;-70
2022/09/23 13:47:31;;;;;;;7.25;1.35;;;;;;;;;;5321731;28;20258;-69
2022/09/23 13:50:02;;;;;;;6.57;1.20;;;;;;;;;;5321720;28;20200;-70
2022/09/23 13:52:33;;;;;;;4.47;1.67;;;;;;;;;;5321353;28;20467;-70
2022/09/23 13:55:05;;;;;;;6.38;1.50;;;;;;;;;;5322299;28;20016;-69
2022/09/23 13:57:36;;;;;;;4.28;1.65;;;;;;;;;;5320957;28;20035;-71
2022/09/23 14:00:20;;;;;;;6.40;2.00;;;;;;;;;;5322066;28;20040;-71
2022/09/23 14:02:54;;;;;;;3.95;1.05;;;;;;;;;;5321536;28;20743;-70
2022/09/23 14:05:28;;;;;;;4.60;1.75;;;;;;;;;;5320955;28;20054;-70
2022/09/23 14:07:59;;;;;;;4.80;1.35;;;;;;;;;;5321933;28;20051;-70
2022/09/23 14:10:31;;;;;;;4.93;1.50;;;;;;;;;;5321638;28;20438;-69
2022/09/23 14:13:02;;;;;;;5.78;1.50;;;;;;;;;;5321328;28;20051;-69
2022/09/23 14:15:35;;;;;;;6.33;1.73;;;;;;;;;;5321846;28;20088;-68
2022/09/23 14:18:07;;;;;;;5.72;1.83;;;;;;;;;;5322422;28;20747;-70
2022/09/23 14:20:49;;;;;;;8.18;2.17;;;;;;;;;;5321223;28;20024;-70
2022/09/23 14:23:20;;;;;;;8.50;1.98;;;;;;;;;;5325425;28;20126;-69
2022/09/23 14:25:51;;;;;;;4.40;1.63;;;;;;;;;;5325132;27;20043;-69
2022/09/23 14:28:23;;;;;;;9.27;2.03;;;;;;;;;;5325826;28;20269;-68
2022/09/23 14:30:56;;;;;;;3.92;1.58;;;;;;;;;;5325457;28;20113;-69
2022/09/23 14:33:32;;;;;;;4.60;1.60;;;;;;;;;;5324000;28;20128;-69
2022/09/23 14:39:05;;;;;;;6.35;2.08;;;;;;;;;;5325971;28;20395;-69
2022/09/23 14:41:41;;;;;;;5.30;2.22;;;;;;;;;;5324323;28;20027;-69
2022/09/23 14:44:20;;;;;;;4.57;2.05;;;;;;;;;;5325710;28;20370;-69
2022/09/23 14:46:55;;;;;;;5.65;2.75;;;;;;;;;;5324300;28;20099;-69
2022/09/23 14:49:26;;;;;;;6.10;2.30;;;;;;;;;;5324971;28;20370;-70
2022/09/23 14:52:02;;;;;;;6.90;2.53;;;;;;;;;;5325474;28;20023;-69
2022/09/23 14:54:33;;;;;;;6.15;2.17;;;;;;;;;;5323988;28;20030;-69
2022/09/23 14:57:23;;;;;;;5.30;2.13;;;;;;;;;;5325630;28;20019;-69
2022/09/23 14:59:57;;;;;;;5.45;1.85;;;;;;;;;;5324692;28;20081;-69
2022/09/23 15:02:30;;;;;;;4.13;2.17;;;;;;;;;;5323812;28;20028;-70
2022/09/23 15:05:21;;;;;;;7.35;2.35;;;;;;;;;;5325200;28;20035;-70
2022/09/23 15:07:55;;;;;;;6.20;2.38;;;;;;;;;;5323600;28;20031;-69
2022/09/23 15:10:30;;;;;;;5.05;2.17;;;;;;;;;;5324634;28;20089;-70
2022/09/23 15:13:11;;;;;;;8.25;2.17;;;;;;;;;;5324870;28;20063;-69
2022/09/23 15:15:43;;;;;;;8.23;2.67;;;;;;;;;;5323710;28;20799;-69
2022/09/23 15:18:17;;;;;;;10.45;2.60;;;;;;;;;;5325280;28;20076;-70
2022/09/23 15:21:09;;;;;;;8.70;3.03;;;;;;;;;;5324272;28;20031;-70
2022/09/23 15:23:40;;;;;;;7.32;2.60;;;;;;;;;;5323300;28;20036;-70
2022/09/23 15:26:16;;;;;;;8.77;2.70;;;;;;;;;;5325377;28;20023;-70
2022/09/23 15:28:48;;;;;;;7.07;2.67;;;;;;;;;;5323975;28;20106;-69
2022/09/23 15:31:20;;;;;;;6.07;1.88;;;;;;;;;;5325254;28;20382;-70
2022/09/23 15:33:51;;;;;;;6.28;3.10;;;;;;;;;;5323311;28;20016;-70
2022/09/23 15:36:24;;;;;;;7.05;3.15;;;;;;;;;;5324267;28;20074;-70
2022/09/23 15:39:00;;;;;;;5.65;2.15;;;;;;;;;;5325000;28;20019;-70
2022/09/23 15:41:34;;;;;;;8.07;3.30;;;;;;;;;;5324260;28;20512;-70
2022/09/23 15:44:20;;;;;;;10.80;2.30;;;;;;;;;;5323718;28;20098;-70